Del Norte International Airport
MMAN : now visible

Airfield :











YOU CAN JOIN US ON...

 
LOGIN :

Register | Disclaimer

   EN    FR    IT 

 









Legend :    VFR   Marginal VFR   IFR   Intensive IFR   Very Intensive IFR
Visi :
Ceiling :
>= 8 km
>= 3000ft
5 to 8 km
1000 to 3000 ft
1500m to 5 km
500 to 1000 ft
800 to 1500m
200 to 500 ft
< 800m
< 200 ft
Symbols :   Thunderstorms  Fog  Heavy snow  Heavy precipitations  Wind > 20 kt






- Airport Elevation : 1476 ft
- IATA code : NTR


MMAN - Del Norte International

CURRENT METAR :
  • 112140Z 14009KT 15SM BKN020 15/06 A3037 RMK 8/500

EXPIRED METARs :
  • 112040Z 13008KT 15SM BKN020 15/06 A3038 RMK SLP/// 5//// 9// 8/500
  • 111940Z 10007KT 15SM SCT020 15/07 A3040 RMK 8/500

TAF TAF MMAN
Valid from the 11 at 18:00 until the 12 at 18:00 UTC


111729Z 1118/1218 02008KT P6SM BKN020
BECMG 1120/1121 09010KT BKN040
FM120200 12005KT P6SM SCT040
BECMG 1215/1216 12008KT



MET'MAP, your aeronautical weather chart ! - Copyright ORBIFLY December 2007 - Disclaimer

ORBIFLY MET'MAP TEAM :

Programming & Development : Alexandra Zaïnal
Concept & original design : Baudouin d'Aumeries
Assistance for programming : Marc-Olivier Méhu
Technical & hardware support : Manuel Goepfert

Contact : metmap@orbifly.com




SOURCES & CREDITS :

   NOAA       Earth
Advisory